createdAt,value
2023-03-02T00:00:17.061Z,18.70
2023-03-02T00:03:06.825Z,18.90
2023-03-02T00:05:56.772Z,19.02
2023-03-02T00:08:46.733Z,19.38
2023-03-02T00:11:36.980Z,19.38
2023-03-02T00:14:24.732Z,20.63
2023-03-02T00:17:12.446Z,20.50
2023-03-02T00:20:12.229Z,19.67
2023-03-02T00:23:00.210Z,20.38
2023-03-02T00:25:49.484Z,19.30
2023-03-02T00:28:37.086Z,20.20
2023-03-02T00:31:24.926Z,20.15
2023-03-02T00:34:12.504Z,21.08
2023-03-02T00:37:00.120Z,21.17
2023-03-02T00:39:48.155Z,21.05
2023-03-02T00:42:37.460Z,20.33
2023-03-02T00:45:25.100Z,20.35
2023-03-02T00:48:14.468Z,20.83
2023-03-02T00:51:03.039Z,20.17
2023-03-02T00:53:51.062Z,21.60
2023-03-02T00:56:38.282Z,20.70
2023-03-02T00:59:28.684Z,20.23
2023-03-02T01:02:26.813Z,21.92
2023-03-02T01:05:14.783Z,22.52
2023-03-02T01:08:02.510Z,22.33
2023-03-02T01:10:49.946Z,22.52
2023-03-02T01:13:37.409Z,21.27
2023-03-02T01:16:27.614Z,21.65
2023-03-02T01:19:15.430Z,22.15
2023-03-02T01:22:03.580Z,22.17
2023-03-02T01:24:51.279Z,22.85
2023-03-02T01:27:39.249Z,22.45
2023-03-02T01:30:27.666Z,22.42
2023-03-02T01:33:17.230Z,22.70
2023-03-02T01:36:04.795Z,21.95
2023-03-02T01:38:54.433Z,22.27
2023-03-02T01:41:42.004Z,22.23
2023-03-02T01:44:46.315Z,22.30
2023-03-02T01:47:37.851Z,22.15
2023-03-02T01:50:33.802Z,22.00
2023-03-02T01:53:23.312Z,22.38
2023-03-02T01:56:10.884Z,23.83
2023-03-02T01:59:02.441Z,22.90
2023-03-02T02:01:53.380Z,23.00
2023-03-02T02:04:44.538Z,24.02
2023-03-02T02:07:33.531Z,24.02
2023-03-02T02:10:21.782Z,24.40
2023-03-02T02:13:12.016Z,23.92
2023-03-02T02:15:59.422Z,24.17
2023-03-02T02:18:47.488Z,24.70
2023-03-02T02:21:34.868Z,23.15
2023-03-02T02:24:32.492Z,25.80
2023-03-02T02:27:21.890Z,22.20
2023-03-02T02:30:12.189Z,23.67
2023-03-02T02:33:01.605Z,24.63
2023-03-02T02:35:49.484Z,25.20
2023-03-02T02:38:38.949Z,24.42
2023-03-02T02:41:35.357Z,23.83
2023-03-02T02:44:25.074Z,25.90
2023-03-02T02:47:18.829Z,27.20
2023-03-02T02:50:07.524Z,25.35
2023-03-02T02:53:00.634Z,24.50
2023-03-02T02:58:43.607Z,23.88
2023-03-02T03:01:35.125Z,24.65
2023-03-02T03:04:26.965Z,26.25
2023-03-02T03:07:21.399Z,23.60
2023-03-02T03:10:17.148Z,25.90
2023-03-02T03:13:04.810Z,26.88
2023-03-02T03:15:52.759Z,25.67
2023-03-02T03:18:43.977Z,26.85
2023-03-02T03:21:32.052Z,25.90
2023-03-02T03:24:20.770Z,26.20
2023-03-02T03:27:11.667Z,26.42
2023-03-02T03:30:02.196Z,30.00
2023-03-02T03:32:52.716Z,29.60
2023-03-02T03:35:42.502Z,27.60
2023-03-02T03:38:31.841Z,26.55
2023-03-02T03:41:19.830Z,27.95
2023-03-02T03:44:07.295Z,26.15
2023-03-02T03:46:56.929Z,26.13
2023-03-02T03:49:44.593Z,26.17
2023-03-02T03:52:34.075Z,27.45
2023-03-02T03:55:30.369Z,26.08
2023-03-02T03:58:18.995Z,27.33
2023-03-02T04:01:06.768Z,26.98
2023-03-02T04:03:54.213Z,27.05
2023-03-02T04:06:42.025Z,27.13
2023-03-02T04:09:32.497Z,26.15
2023-03-02T04:12:20.950Z,25.38
2023-03-02T04:15:16.383Z,26.77
2023-03-02T04:18:05.962Z,25.92
2023-03-02T04:20:55.110Z,28.65
2023-03-02T04:23:42.958Z,27.65
2023-03-02T04:26:32.318Z,28.10
2023-03-02T04:29:21.416Z,28.60
2023-03-02T04:32:09.278Z,26.05
2023-03-02T04:35:02.430Z,27.92
2023-03-02T04:37:49.886Z,27.48
2023-03-02T04:40:37.006Z,27.20
2023-03-02T04:43:27.348Z,28.60
2023-03-02T04:46:17.451Z,26.95
2023-03-02T04:49:06.292Z,27.77
2023-03-02T04:51:54.043Z,28.08
2023-03-02T04:54:41.336Z,26.58
2023-03-02T04:57:28.754Z,28.35
2023-03-02T05:00:21.186Z,27.70
2023-03-02T05:03:08.904Z,29.00
2023-03-02T05:05:57.521Z,28.35
2023-03-02T05:08:46.104Z,28.90
2023-03-02T05:11:33.773Z,27.20
2023-03-02T05:14:21.546Z,25.58
2023-03-02T05:17:10.358Z,29.88
2023-03-02T05:19:58.148Z,27.45
2023-03-02T05:22:45.458Z,28.73
2023-03-02T05:25:35.480Z,28.80
2023-03-02T05:28:24.816Z,28.95
2023-03-02T05:31:19.848Z,30.02
2023-03-02T05:34:13.124Z,27.58
2023-03-02T05:37:01.850Z,29.25
2023-03-02T05:39:49.499Z,29.08
2023-03-02T05:42:37.086Z,29.38
2023-03-02T05:45:28.317Z,29.98
2023-03-02T05:48:16.843Z,30.05
2023-03-02T05:51:05.959Z,28.90
2023-03-02T05:53:53.457Z,32.58
2023-03-02T05:56:40.950Z,30.83
2023-03-02T05:59:28.505Z,31.83
2023-03-02T06:02:16.280Z,30.83
2023-03-02T06:05:04.110Z,29.60
2023-03-02T06:07:53.324Z,31.58
2023-03-02T06:10:40.831Z,30.90
2023-03-02T06:13:28.924Z,28.63
2023-03-02T06:16:16.567Z,29.25
2023-03-02T06:19:04.323Z,30.02
2023-03-02T06:21:51.621Z,29.90
2023-03-02T06:24:40.690Z,30.58
2023-03-02T06:27:32.085Z,30.30
2023-03-02T06:30:27.044Z,30.95
2023-03-02T06:33:21.711Z,32.83
2023-03-02T06:36:12.741Z,31.08
2023-03-02T06:39:00.394Z,29.45
2023-03-02T06:41:50.106Z,32.22
2023-03-02T06:44:37.354Z,30.95
2023-03-02T06:47:25.450Z,32.38
2023-03-02T06:50:13.152Z,30.10
2023-03-02T06:53:00.316Z,31.38
2023-03-02T06:55:48.770Z,31.05
2023-03-02T06:58:38.065Z,31.60
2023-03-02T07:01:25.239Z,31.65
2023-03-02T07:04:12.343Z,29.83
2023-03-02T07:06:59.505Z,30.55
2023-03-02T07:09:46.842Z,31.30
2023-03-02T07:12:34.201Z,30.58
2023-03-02T07:15:22.800Z,29.23
2023-03-02T07:18:10.158Z,27.95
2023-03-02T07:20:57.788Z,28.20
2023-03-02T07:23:45.101Z,28.42
2023-03-02T07:26:35.231Z,27.13
2023-03-02T07:29:22.664Z,27.95
2023-03-02T07:32:12.674Z,28.10
2023-03-02T07:35:02.521Z,26.75
2023-03-02T07:37:49.974Z,24.35
2023-03-02T07:40:41.370Z,24.48
2023-03-02T07:43:29.524Z,22.98
2023-03-02T07:46:16.910Z,24.02
2023-03-02T07:49:05.526Z,22.67
2023-03-02T07:51:52.700Z,22.33
2023-03-02T07:54:39.924Z,22.10
2023-03-02T07:57:27.234Z,24.65
2023-03-02T08:00:15.925Z,21.50
2023-03-02T08:03:03.485Z,20.20
2023-03-02T08:05:51.982Z,21.30
2023-03-02T08:08:39.790Z,21.60
2023-03-02T08:11:27.158Z,20.33
2023-03-02T08:14:14.423Z,19.45
2023-03-02T08:17:02.428Z,20.65
2023-03-02T08:19:49.735Z,19.77
2023-03-02T08:22:38.551Z,21.88
2023-03-02T08:25:25.502Z,19.85
2023-03-02T08:28:12.767Z,20.52
2023-03-02T08:31:02.384Z,19.73
2023-03-02T08:33:49.936Z,18.98
2023-03-02T08:36:37.068Z,20.83
2023-03-02T08:39:25.553Z,20.30
2023-03-02T08:42:12.760Z,19.70
2023-03-02T08:45:00.005Z,19.75
2023-03-02T08:47:46.793Z,20.77
2023-03-02T08:50:33.788Z,21.52
2023-03-02T08:53:20.875Z,21.45
2023-03-02T08:56:17.639Z,20.17
2023-03-02T08:59:07.135Z,19.27
2023-03-02T09:01:54.612Z,21.15
2023-03-02T09:04:41.643Z,21.02
2023-03-02T09:07:30.810Z,19.60
2023-03-02T09:10:17.934Z,20.52
2023-03-02T09:13:08.567Z,19.42
2023-03-02T09:15:55.822Z,19.42
2023-03-02T09:18:43.489Z,19.83
2023-03-02T09:21:31.005Z,19.08
2023-03-02T09:24:18.624Z,19.02
2023-03-02T09:27:05.847Z,18.85
2023-03-02T09:29:54.638Z,18.38
2023-03-02T09:32:41.900Z,18.80
2023-03-02T09:35:29.149Z,18.58
2023-03-02T09:38:18.805Z,18.55
2023-03-02T09:41:30.034Z,17.08
2023-03-02T09:44:35.165Z,17.85
2023-03-02T09:47:35.847Z,18.27
2023-03-02T09:50:31.378Z,18.25
2023-03-02T09:53:32.435Z,17.98
2023-03-02T09:56:21.211Z,16.90
2023-03-02T09:59:15.539Z,15.95
2023-03-02T10:02:12.343Z,16.83
2023-03-02T10:05:03.576Z,16.73
2023-03-02T10:07:50.928Z,13.88
2023-03-02T10:10:44.706Z,15.48
2023-03-02T10:13:44.990Z,14.77
2023-03-02T10:16:38.835Z,14.50
2023-03-02T10:19:32.768Z,14.48
2023-03-02T10:22:28.382Z,15.00
2023-03-02T10:25:31.268Z,15.23
2023-03-02T10:28:22.312Z,15.38
2023-03-02T10:31:11.678Z,14.88
2023-03-02T10:34:00.232Z,15.90
2023-03-02T10:36:48.502Z,15.27
2023-03-02T10:39:37.041Z,13.70
2023-03-02T10:42:30.482Z,15.75
2023-03-02T10:51:01.625Z,15.35
2023-03-02T10:53:48.600Z,15.55
2023-03-02T10:56:37.838Z,15.18
2023-03-02T10:59:39.904Z,13.95
2023-03-02T11:02:29.769Z,14.75
2023-03-02T11:05:30.491Z,14.95
2023-03-02T11:08:20.456Z,13.90
2023-03-02T11:11:07.341Z,14.13
2023-03-02T11:13:57.078Z,15.07
2023-03-02T11:16:44.298Z,14.05
2023-03-02T11:19:36.412Z,13.90
2023-03-02T11:22:35.483Z,12.68
2023-03-02T11:25:31.527Z,12.25
2023-03-02T11:28:33.300Z,13.70
2023-03-02T11:31:34.085Z,14.25
2023-03-02T11:34:29.267Z,13.75
2023-03-02T11:37:19.872Z,13.27
2023-03-02T11:40:20.621Z,12.13
2023-03-02T11:43:09.741Z,13.52
2023-03-02T11:46:01.770Z,12.45
2023-03-02T11:48:53.352Z,13.07
2023-03-02T11:51:57.707Z,13.23
2023-03-02T11:54:47.888Z,13.40
2023-03-02T11:57:39.632Z,11.85
2023-03-02T12:00:32.968Z,10.23
2023-03-02T12:03:24.170Z,11.23
2023-03-02T12:09:26.374Z,12.07
2023-03-02T12:12:34.181Z,12.13
2023-03-02T12:15:37.803Z,12.95
2023-03-02T12:18:32.245Z,12.88
2023-03-02T12:21:20.954Z,13.10
2023-03-02T12:24:27.792Z,13.52
2023-03-02T12:27:35.724Z,12.63
2023-03-02T12:30:27.384Z,11.38
2023-03-02T12:33:21.297Z,11.00
2023-03-02T12:36:15.343Z,10.68
2023-03-02T12:39:25.065Z,10.88
2023-03-02T12:42:39.344Z,11.25
2023-03-02T12:45:39.134Z,11.10
2023-03-02T12:48:30.956Z,12.00
2023-03-02T12:51:22.612Z,11.15
2023-03-02T12:54:16.928Z,10.63
2023-03-02T12:57:09.900Z,9.90
2023-03-02T13:00:00.312Z,10.02
2023-03-02T13:02:50.360Z,10.10
2023-03-02T13:05:37.969Z,9.90
2023-03-02T13:08:29.763Z,10.27
2023-03-02T13:11:25.669Z,11.02
2023-03-02T13:14:23.340Z,9.77
2023-03-02T13:17:24.749Z,9.68
2023-03-02T13:20:15.391Z,10.02
2023-03-02T13:23:02.579Z,10.07
2023-03-02T13:25:52.255Z,10.98
2023-03-02T13:28:41.217Z,10.23
2023-03-02T13:31:28.482Z,10.68
2023-03-02T13:34:24.391Z,9.65
2023-03-02T13:37:23.183Z,9.98
2023-03-02T13:40:33.253Z,8.95
2023-03-02T13:43:24.483Z,10.18
2023-03-02T13:46:29.137Z,9.65
2023-03-02T13:49:26.863Z,10.32
2023-03-02T13:52:27.314Z,9.75
2023-03-02T13:55:16.482Z,10.25
2023-03-02T13:58:04.053Z,10.00
2023-03-02T14:00:51.824Z,10.15
2023-03-02T14:03:38.785Z,9.85
2023-03-02T14:06:26.145Z,9.52
2023-03-02T14:09:15.105Z,9.77
2023-03-02T14:12:02.278Z,9.18
2023-03-02T14:14:49.855Z,9.45
2023-03-02T14:17:37.093Z,9.60
2023-03-02T14:20:24.289Z,9.18
2023-03-02T14:23:11.682Z,15.10
2023-03-02T14:26:00.267Z,16.88
2023-03-02T14:28:51.083Z,17.88
2023-03-02T14:31:41.138Z,19.15
2023-03-02T14:34:28.194Z,18.67
2023-03-02T14:37:16.818Z,19.73
2023-03-02T14:40:04.033Z,18.52
2023-03-02T14:42:53.421Z,18.67
2023-03-02T14:45:40.506Z,19.30
2023-03-02T14:48:27.825Z,20.40
2023-03-02T14:51:23.157Z,19.92
2023-03-02T14:54:15.854Z,18.90
2023-03-02T14:57:06.509Z,20.42
2023-03-02T14:59:56.284Z,19.35
2023-03-02T15:02:43.752Z,18.65
2023-03-02T15:05:33.501Z,19.17
2023-03-02T15:08:21.163Z,19.75
2023-03-02T15:11:08.330Z,19.63
2023-03-02T15:13:55.320Z,20.27
2023-03-02T15:16:43.920Z,20.40
2023-03-02T15:19:30.798Z,20.80
2023-03-02T15:22:18.108Z,20.48
2023-03-02T15:25:05.138Z,20.45
2023-03-02T15:27:52.164Z,21.05
2023-03-02T15:30:39.427Z,20.75
2023-03-02T15:33:28.070Z,21.15
2023-03-02T15:36:42.883Z,22.48
2023-03-02T15:39:30.201Z,22.63
2023-03-02T15:42:17.119Z,21.85
2023-03-02T15:45:04.878Z,21.60
2023-03-02T15:47:52.003Z,21.02
2023-03-02T15:50:40.713Z,22.67
2023-03-02T15:53:27.904Z,21.45
2023-03-02T15:56:17.083Z,24.00
2023-03-02T15:59:04.615Z,22.48
2023-03-02T16:01:51.690Z,22.77
2023-03-02T16:04:38.865Z,22.58
2023-03-02T16:07:27.409Z,22.08
2023-03-02T16:10:16.634Z,22.13
2023-03-02T16:13:04.341Z,22.08
2023-03-02T16:15:51.410Z,22.80
2023-03-02T16:18:38.793Z,22.65
2023-03-02T16:21:28.482Z,21.52
2023-03-02T16:24:17.391Z,22.40
2023-03-02T16:27:05.172Z,22.85
2023-03-02T16:29:52.240Z,23.20
2023-03-02T16:32:39.602Z,22.52
2023-03-02T16:35:27.285Z,21.80
2023-03-02T16:38:14.598Z,23.15
2023-03-02T16:41:03.328Z,23.30
2023-03-02T16:43:52.646Z,22.83
2023-03-02T16:46:43.703Z,22.85
2023-03-02T16:49:34.157Z,22.27
2023-03-02T16:52:21.150Z,23.35
2023-03-02T16:55:13.207Z,23.77
2023-03-02T16:58:01.542Z,23.23
2023-03-02T17:00:48.682Z,24.90
2023-03-02T17:03:36.134Z,24.50
2023-03-02T17:06:25.173Z,24.90
2023-03-02T17:09:13.621Z,23.15
2023-03-02T17:12:01.005Z,23.80
2023-03-02T17:14:49.681Z,23.73
2023-03-02T17:17:36.723Z,25.58
2023-03-02T17:20:24.151Z,23.90
2023-03-02T17:23:12.614Z,25.17
2023-03-02T17:26:13.333Z,24.27
2023-03-02T17:29:06.864Z,24.60
2023-03-02T17:32:03.167Z,24.92
2023-03-02T17:34:50.768Z,24.67
2023-03-02T17:37:38.147Z,24.83
2023-03-02T17:40:25.176Z,24.40
2023-03-02T17:43:12.856Z,25.38
2023-03-02T17:46:11.417Z,26.30
2023-03-02T17:49:01.461Z,26.48
2023-03-02T17:51:48.773Z,25.48
2023-03-02T17:54:36.117Z,25.38
2023-03-02T17:57:23.340Z,25.65
2023-03-02T18:00:14.359Z,24.92
2023-03-02T18:03:01.605Z,27.00
2023-03-02T18:05:50.241Z,26.67
2023-03-02T18:08:38.191Z,25.48
2023-03-02T18:11:26.346Z,25.52
2023-03-02T18:14:16.739Z,26.65
2023-03-02T18:17:07.569Z,26.15
2023-03-02T18:19:54.618Z,25.10
2023-03-02T18:22:43.676Z,25.73
2023-03-02T18:25:31.252Z,26.77
2023-03-02T18:28:18.767Z,26.55
2023-03-02T18:31:06.462Z,25.77
2023-03-02T18:33:53.796Z,27.17
2023-03-02T18:36:40.828Z,25.33
2023-03-02T18:39:29.431Z,26.50
2023-03-02T18:42:16.620Z,24.80
2023-03-02T18:45:03.988Z,26.70
2023-03-02T18:47:51.106Z,23.88
2023-03-02T18:50:39.683Z,27.88
2023-03-02T18:53:27.174Z,27.35
2023-03-02T18:56:16.607Z,26.77
2023-03-02T18:59:05.918Z,25.60
2023-03-02T19:01:53.259Z,26.73
2023-03-02T19:04:40.637Z,27.23
2023-03-02T19:07:28.577Z,26.45
2023-03-02T19:10:16.775Z,27.58
2023-03-02T19:13:05.913Z,27.55
2023-03-02T19:15:55.749Z,25.70
2023-03-02T19:18:43.444Z,26.42
2023-03-02T19:21:30.955Z,26.60
2023-03-02T19:24:18.601Z,26.23
2023-03-02T19:27:06.359Z,25.42
2023-03-02T19:29:55.806Z,25.20
2023-03-02T19:32:43.526Z,26.88
2023-03-02T19:35:31.987Z,26.45
2023-03-02T19:38:19.801Z,26.88
2023-03-02T19:41:07.783Z,27.20
2023-03-02T19:43:56.202Z,25.77
2023-03-02T19:46:45.258Z,26.83
2023-03-02T19:49:32.451Z,26.48
2023-03-02T19:52:19.713Z,26.20
2023-03-02T19:55:10.122Z,25.50
2023-03-02T19:58:00.264Z,25.95
2023-03-02T20:00:49.087Z,27.30
2023-03-02T20:03:37.994Z,27.90
2023-03-02T20:06:30.681Z,27.48
2023-03-02T20:09:20.081Z,25.25
2023-03-02T20:12:08.362Z,26.77
2023-03-02T20:14:56.998Z,27.95
2023-03-02T20:17:44.545Z,25.58
2023-03-02T20:20:33.924Z,26.75
2023-03-02T20:23:21.627Z,29.42
2023-03-02T20:26:09.249Z,27.52
2023-03-02T20:28:58.168Z,27.60
2023-03-02T20:31:45.119Z,25.95
2023-03-02T20:34:32.134Z,26.65
2023-03-02T20:37:22.844Z,26.63
2023-03-02T20:40:11.130Z,28.60
2023-03-02T20:42:58.415Z,26.08
2023-03-02T20:45:45.924Z,26.73
2023-03-02T20:48:33.084Z,27.05
2023-03-02T20:51:21.193Z,25.27
2023-03-02T20:54:10.823Z,27.55
2023-03-02T20:56:59.148Z,26.25
2023-03-02T20:59:47.555Z,27.15
2023-03-02T21:02:35.135Z,26.23
2023-03-02T21:05:22.895Z,26.50
2023-03-02T21:08:11.535Z,26.75
2023-03-02T21:11:01.147Z,26.65
2023-03-02T21:13:49.777Z,25.50
2023-03-02T21:16:39.926Z,25.85
2023-03-02T21:19:29.705Z,25.75
2023-03-02T21:22:17.203Z,26.42
2023-03-02T21:25:09.171Z,26.33
2023-03-02T21:27:59.486Z,25.77
2023-03-02T21:30:47.053Z,26.83
2023-03-02T21:33:34.750Z,26.15
2023-03-02T21:36:25.283Z,26.60
2023-03-02T21:39:14.506Z,25.67
2023-03-02T21:42:02.202Z,26.92
2023-03-02T21:44:51.227Z,26.85
2023-03-02T21:47:39.652Z,26.42
2023-03-02T21:50:30.502Z,27.08
2023-03-02T21:53:19.474Z,26.98
2023-03-02T21:56:08.027Z,26.38
2023-03-02T21:58:57.485Z,26.90
2023-03-02T22:01:46.599Z,27.00
2023-03-02T22:04:35.638Z,26.58
2023-03-02T22:07:25.809Z,26.17
2023-03-02T22:10:25.252Z,29.05
2023-03-02T22:13:18.803Z,26.83
2023-03-02T22:16:15.030Z,28.13
2023-03-02T22:19:07.760Z,27.48
2023-03-02T22:21:57.031Z,26.85
2023-03-02T22:24:49.426Z,26.73
2023-03-02T22:27:37.134Z,27.83
2023-03-02T22:30:26.897Z,25.65
2023-03-02T22:33:20.986Z,26.08
2023-03-02T22:36:19.897Z,28.10
2023-03-02T22:39:13.106Z,26.15
2023-03-02T22:42:06.410Z,26.60
2023-03-02T22:45:01.585Z,25.85
2023-03-02T22:47:52.747Z,27.02
2023-03-02T22:50:40.781Z,28.15
2023-03-02T22:53:32.398Z,26.65
2023-03-02T22:56:31.217Z,26.85
2023-03-02T22:59:24.918Z,27.77
2023-03-02T23:02:22.479Z,27.63
2023-03-02T23:05:26.275Z,26.77
2023-03-02T23:08:21.357Z,27.80
2023-03-02T23:11:17.932Z,27.75
2023-03-02T23:14:22.741Z,26.73
2023-03-02T23:17:17.105Z,26.88
2023-03-02T23:20:10.785Z,27.85
2023-03-02T23:22:58.685Z,27.70
2023-03-02T23:25:47.016Z,26.63
2023-03-02T23:28:36.123Z,26.08
2023-03-02T23:31:23.581Z,29.63
2023-03-02T23:34:11.547Z,26.83
2023-03-02T23:36:59.799Z,27.40
2023-03-02T23:39:47.181Z,28.17
2023-03-02T23:42:34.444Z,28.30
2023-03-02T23:45:23.649Z,27.65
2023-03-02T23:48:11.546Z,31.20
2023-03-02T23:50:59.747Z,29.30
2023-03-02T23:53:47.497Z,28.75
2023-03-02T23:56:36.126Z,26.80
2023-03-02T23:59:23.843Z,26.83
